sensor_id;sensor_type;location;lat;lon;timestamp;P1;durP1;ratioP1;P2;durP2;ratioP2
51578;SDS011;47998;53.242;6.386;2022-12-18T00:01:31;103.33;;;37.27;;
51578;SDS011;47998;53.242;6.386;2022-12-18T00:03:59;146.37;;;45.70;;
51578;SDS011;47998;53.242;6.386;2022-12-18T00:06:32;104.80;;;35.53;;
51578;SDS011;47998;53.242;6.386;2022-12-18T00:08:59;121.10;;;39.33;;
51578;SDS011;47998;53.242;6.386;2022-12-18T00:11:28;100.10;;;33.57;;
51578;SDS011;47998;53.242;6.386;2022-12-18T00:13:55;129.27;;;39.03;;
51578;SDS011;47998;53.242;6.386;2022-12-18T00:16:23;154.03;;;44.70;;
51578;SDS011;47998;53.242;6.386;2022-12-18T00:18:51;177.13;;;47.20;;
51578;SDS011;47998;53.242;6.386;2022-12-18T00:21:19;175.73;;;47.90;;
51578;SDS011;47998;53.242;6.386;2022-12-18T00:23:45;100.00;;;34.27;;
51578;SDS011;47998;53.242;6.386;2022-12-18T00:26:16;172.03;;;44.80;;
51578;SDS011;47998;53.242;6.386;2022-12-18T00:28:44;164.63;;;45.73;;
51578;SDS011;47998;53.242;6.386;2022-12-18T00:31:12;167.57;;;44.23;;
51578;SDS011;47998;53.242;6.386;2022-12-18T00:33:43;168.23;;;44.97;;
51578;SDS011;47998;53.242;6.386;2022-12-18T00:36:10;165.60;;;45.80;;
51578;SDS011;47998;53.242;6.386;2022-12-18T00:38:40;173.50;;;46.60;;
51578;SDS011;47998;53.242;6.386;2022-12-18T00:41:07;175.23;;;47.93;;
51578;SDS011;47998;53.242;6.386;2022-12-18T00:43:33;163.93;;;45.43;;
51578;SDS011;47998;53.242;6.386;2022-12-18T00:45:59;118.17;;;37.67;;
51578;SDS011;47998;53.242;6.386;2022-12-18T00:48:25;168.50;;;46.77;;
51578;SDS011;47998;53.242;6.386;2022-12-18T00:50:51;163.30;;;44.80;;
51578;SDS011;47998;53.242;6.386;2022-12-18T00:53:17;169.03;;;44.67;;
51578;SDS011;47998;53.242;6.386;2022-12-18T00:55:43;184.77;;;46.77;;
51578;SDS011;47998;53.242;6.386;2022-12-18T00:58:10;180.03;;;47.10;;
51578;SDS011;47998;53.242;6.386;2022-12-18T01:00:36;166.33;;;43.90;;
51578;SDS011;47998;53.242;6.386;2022-12-18T01:03:03;161.07;;;42.60;;
51578;SDS011;47998;53.242;6.386;2022-12-18T01:05:30;159.93;;;42.87;;
51578;SDS011;47998;53.242;6.386;2022-12-18T01:07:56;167.40;;;44.63;;
51578;SDS011;47998;53.242;6.386;2022-12-18T01:10:22;151.73;;;41.83;;
51578;SDS011;47998;53.242;6.386;2022-12-18T01:12:49;157.90;;;41.97;;
51578;SDS011;47998;53.242;6.386;2022-12-18T01:15:15;146.50;;;41.23;;
51578;SDS011;47998;53.242;6.386;2022-12-18T01:17:42;146.50;;;40.60;;
51578;SDS011;47998;53.242;6.386;2022-12-18T01:20:08;152.70;;;42.13;;
51578;SDS011;47998;53.242;6.386;2022-12-18T01:22:36;151.27;;;42.40;;
51578;SDS011;47998;53.242;6.386;2022-12-18T01:25:02;146.27;;;40.00;;
51578;SDS011;47998;53.242;6.386;2022-12-18T01:27:29;145.17;;;41.37;;
51578;SDS011;47998;53.242;6.386;2022-12-18T01:29:55;143.63;;;39.77;;
51578;SDS011;47998;53.242;6.386;2022-12-18T01:32:21;142.57;;;42.37;;
51578;SDS011;47998;53.242;6.386;2022-12-18T01:34:47;158.63;;;41.90;;
51578;SDS011;47998;53.242;6.386;2022-12-18T01:37:13;152.47;;;39.70;;
51578;SDS011;47998;53.242;6.386;2022-12-18T01:39:39;147.60;;;43.40;;
51578;SDS011;47998;53.242;6.386;2022-12-18T01:42:11;159.93;;;38.97;;
51578;SDS011;47998;53.242;6.386;2022-12-18T01:47:45;145.43;;;39.95;;
51578;SDS011;47998;53.242;6.386;2022-12-18T01:50:20;144.63;;;40.87;;
51578;SDS011;47998;53.242;6.386;2022-12-18T01:52:50;142.83;;;39.43;;
51578;SDS011;47998;53.242;6.386;2022-12-18T01:55:29;154.73;;;40.03;;
51578;SDS011;47998;53.242;6.386;2022-12-18T01:58:00;154.57;;;39.57;;
51578;SDS011;47998;53.242;6.386;2022-12-18T02:00:26;133.90;;;36.50;;
51578;SDS011;47998;53.242;6.386;2022-12-18T02:02:53;146.03;;;39.47;;
51578;SDS011;47998;53.242;6.386;2022-12-18T02:05:34;136.27;;;40.70;;
51578;SDS011;47998;53.242;6.386;2022-12-18T02:17:17;140.90;;;41.13;;
51578;SDS011;47998;53.242;6.386;2022-12-18T02:22:38;141.17;;;37.47;;
51578;SDS011;47998;53.242;6.386;2022-12-18T02:25:28;127.03;;;37.60;;
51578;SDS011;47998;53.242;6.386;2022-12-18T02:28:06;128.30;;;34.20;;
51578;SDS011;47998;53.242;6.386;2022-12-18T02:30:37;129.40;;;35.50;;
51578;SDS011;47998;53.242;6.386;2022-12-18T02:33:04;117.00;;;34.43;;
51578;SDS011;47998;53.242;6.386;2022-12-18T02:35:33;113.97;;;33.73;;
51578;SDS011;47998;53.242;6.386;2022-12-18T02:38:01;118.80;;;34.97;;
51578;SDS011;47998;53.242;6.386;2022-12-18T02:40:28;113.80;;;33.57;;
51578;SDS011;47998;53.242;6.386;2022-12-18T02:42:55;121.60;;;33.07;;
51578;SDS011;47998;53.242;6.386;2022-12-18T02:45:36;117.93;;;33.87;;
51578;SDS011;47998;53.242;6.386;2022-12-18T02:48:24;119.60;;;35.17;;
51578;SDS011;47998;53.242;6.386;2022-12-18T02:51:05;121.20;;;35.77;;
51578;SDS011;47998;53.242;6.386;2022-12-18T02:53:43;114.53;;;35.10;;
51578;SDS011;47998;53.242;6.386;2022-12-18T02:56:21;131.40;;;38.03;;
51578;SDS011;47998;53.242;6.386;2022-12-18T02:59:00;143.03;;;36.17;;
51578;SDS011;47998;53.242;6.386;2022-12-18T03:01:32;152.70;;;40.13;;
51578;SDS011;47998;53.242;6.386;2022-12-18T03:04:11;143.47;;;39.30;;
51578;SDS011;47998;53.242;6.386;2022-12-18T03:06:47;161.00;;;40.15;;
51578;SDS011;47998;53.242;6.386;2022-12-18T03:09:18;153.53;;;41.90;;
51578;SDS011;47998;53.242;6.386;2022-12-18T03:11:54;145.83;;;38.87;;
51578;SDS011;47998;53.242;6.386;2022-12-18T03:14:45;142.00;;;40.23;;
51578;SDS011;47998;53.242;6.386;2022-12-18T03:17:15;143.60;;;39.53;;
51578;SDS011;47998;53.242;6.386;2022-12-18T03:19:43;136.30;;;37.07;;
51578;SDS011;47998;53.242;6.386;2022-12-18T03:22:12;125.57;;;35.53;;
51578;SDS011;47998;53.242;6.386;2022-12-18T03:24:38;131.53;;;37.17;;
51578;SDS011;47998;53.242;6.386;2022-12-18T03:27:06;113.57;;;38.30;;
51578;SDS011;47998;53.242;6.386;2022-12-18T03:29:41;122.57;;;35.10;;
51578;SDS011;47998;53.242;6.386;2022-12-18T03:32:19;115.97;;;35.30;;
51578;SDS011;47998;53.242;6.386;2022-12-18T03:34:49;128.70;;;36.10;;
51578;SDS011;47998;53.242;6.386;2022-12-18T03:37:17;117.07;;;35.03;;
51578;SDS011;47998;53.242;6.386;2022-12-18T03:39:43;116.93;;;33.43;;
51578;SDS011;47998;53.242;6.386;2022-12-18T03:42:15;135.37;;;36.40;;
51578;SDS011;47998;53.242;6.386;2022-12-18T03:47:40;121.67;;;35.53;;
51578;SDS011;47998;53.242;6.386;2022-12-18T03:55:44;136.97;;;37.83;;
51578;SDS011;47998;53.242;6.386;2022-12-18T03:58:12;121.73;;;34.53;;
51578;SDS011;47998;53.242;6.386;2022-12-18T04:00:43;119.67;;;35.37;;
51578;SDS011;47998;53.242;6.386;2022-12-18T04:03:09;127.73;;;37.97;;
51578;SDS011;47998;53.242;6.386;2022-12-18T04:05:36;126.37;;;37.77;;
51578;SDS011;47998;53.242;6.386;2022-12-18T04:08:04;116.73;;;35.50;;
51578;SDS011;47998;53.242;6.386;2022-12-18T04:10:30;128.73;;;36.27;;
51578;SDS011;47998;53.242;6.386;2022-12-18T04:12:56;103.03;;;34.03;;
51578;SDS011;47998;53.242;6.386;2022-12-18T04:15:23;118.17;;;36.40;;
51578;SDS011;47998;53.242;6.386;2022-12-18T04:17:49;123.60;;;36.87;;
51578;SDS011;47998;53.242;6.386;2022-12-18T04:20:15;109.10;;;33.87;;
51578;SDS011;47998;53.242;6.386;2022-12-18T04:22:41;109.17;;;35.27;;
51578;SDS011;47998;53.242;6.386;2022-12-18T04:25:08;115.33;;;37.13;;
51578;SDS011;47998;53.242;6.386;2022-12-18T04:27:38;101.73;;;35.30;;
51578;SDS011;47998;53.242;6.386;2022-12-18T04:30:04;119.37;;;34.07;;
51578;SDS011;47998;53.242;6.386;2022-12-18T04:32:30;109.43;;;33.63;;
51578;SDS011;47998;53.242;6.386;2022-12-18T04:34:56;103.20;;;33.23;;
51578;SDS011;47998;53.242;6.386;2022-12-18T04:37:22;96.20;;;31.77;;
51578;SDS011;47998;53.242;6.386;2022-12-18T04:39:47;110.77;;;32.47;;
51578;SDS011;47998;53.242;6.386;2022-12-18T04:42:13;109.57;;;34.63;;
51578;SDS011;47998;53.242;6.386;2022-12-18T04:44:39;111.37;;;34.80;;
51578;SDS011;47998;53.242;6.386;2022-12-18T04:47:05;104.00;;;33.63;;
51578;SDS011;47998;53.242;6.386;2022-12-18T04:49:30;118.60;;;36.60;;
51578;SDS011;47998;53.242;6.386;2022-12-18T04:51:56;108.80;;;33.20;;
51578;SDS011;47998;53.242;6.386;2022-12-18T04:54:22;102.87;;;32.20;;
51578;SDS011;47998;53.242;6.386;2022-12-18T04:56:48;103.53;;;33.63;;
51578;SDS011;47998;53.242;6.386;2022-12-18T04:59:13;107.37;;;33.27;;
51578;SDS011;47998;53.242;6.386;2022-12-18T05:01:39;94.43;;;31.27;;
51578;SDS011;47998;53.242;6.386;2022-12-18T05:04:05;105.77;;;32.27;;
51578;SDS011;47998;53.242;6.386;2022-12-18T05:06:31;101.97;;;33.33;;
51578;SDS011;47998;53.242;6.386;2022-12-18T05:08:57;105.60;;;32.90;;
51578;SDS011;47998;53.242;6.386;2022-12-18T05:11:22;92.30;;;31.70;;
51578;SDS011;47998;53.242;6.386;2022-12-18T05:13:48;110.07;;;33.27;;
51578;SDS011;47998;53.242;6.386;2022-12-18T05:16:14;95.03;;;31.50;;
51578;SDS011;47998;53.242;6.386;2022-12-18T05:18:40;95.47;;;29.63;;
51578;SDS011;47998;53.242;6.386;2022-12-18T05:21:06;80.37;;;29.13;;
51578;SDS011;47998;53.242;6.386;2022-12-18T05:23:32;96.47;;;30.77;;
51578;SDS011;47998;53.242;6.386;2022-12-18T05:25:59;85.63;;;29.70;;
51578;SDS011;47998;53.242;6.386;2022-12-18T05:28:27;94.90;;;29.93;;
51578;SDS011;47998;53.242;6.386;2022-12-18T05:30:55;95.73;;;30.20;;
51578;SDS011;47998;53.242;6.386;2022-12-18T05:33:23;87.93;;;29.00;;
51578;SDS011;47998;53.242;6.386;2022-12-18T05:35:50;86.27;;;28.53;;
51578;SDS011;47998;53.242;6.386;2022-12-18T05:38:17;84.30;;;29.17;;
51578;SDS011;47998;53.242;6.386;2022-12-18T05:40:43;79.10;;;27.23;;
51578;SDS011;47998;53.242;6.386;2022-12-18T05:43:09;90.30;;;29.90;;
51578;SDS011;47998;53.242;6.386;2022-12-18T05:45:39;87.30;;;28.87;;
51578;SDS011;47998;53.242;6.386;2022-12-18T05:48:05;84.17;;;26.90;;
51578;SDS011;47998;53.242;6.386;2022-12-18T05:50:35;100.57;;;30.20;;
51578;SDS011;47998;53.242;6.386;2022-12-18T05:53:02;84.17;;;27.47;;
51578;SDS011;47998;53.242;6.386;2022-12-18T05:55:29;82.93;;;29.23;;
51578;SDS011;47998;53.242;6.386;2022-12-18T05:57:57;85.70;;;27.93;;
51578;SDS011;47998;53.242;6.386;2022-12-18T06:00:24;79.93;;;27.37;;
51578;SDS011;47998;53.242;6.386;2022-12-18T06:02:49;79.17;;;24.67;;
51578;SDS011;47998;53.242;6.386;2022-12-18T06:05:15;76.97;;;27.70;;
51578;SDS011;47998;53.242;6.386;2022-12-18T06:07:41;78.57;;;26.90;;
51578;SDS011;47998;53.242;6.386;2022-12-18T06:10:07;81.63;;;26.53;;
51578;SDS011;47998;53.242;6.386;2022-12-18T06:12:33;84.53;;;29.93;;
51578;SDS011;47998;53.242;6.386;2022-12-18T06:14:59;68.50;;;26.07;;
51578;SDS011;47998;53.242;6.386;2022-12-18T06:17:31;84.07;;;25.63;;
51578;SDS011;47998;53.242;6.386;2022-12-18T06:19:58;84.50;;;27.55;;
51578;SDS011;47998;53.242;6.386;2022-12-18T06:22:24;84.67;;;26.97;;
51578;SDS011;47998;53.242;6.386;2022-12-18T06:24:50;88.97;;;27.50;;
51578;SDS011;47998;53.242;6.386;2022-12-18T06:27:16;84.60;;;27.17;;
51578;SDS011;47998;53.242;6.386;2022-12-18T06:29:41;83.83;;;27.23;;
51578;SDS011;47998;53.242;6.386;2022-12-18T06:32:07;76.93;;;24.97;;
51578;SDS011;47998;53.242;6.386;2022-12-18T06:34:33;89.33;;;29.03;;
51578;SDS011;47998;53.242;6.386;2022-12-18T06:36:59;91.90;;;25.90;;
51578;SDS011;47998;53.242;6.386;2022-12-18T06:39:27;95.63;;;26.90;;
51578;SDS011;47998;53.242;6.386;2022-12-18T06:41:53;84.43;;;26.87;;
51578;SDS011;47998;53.242;6.386;2022-12-18T06:44:18;78.77;;;27.20;;
51578;SDS011;47998;53.242;6.386;2022-12-18T06:46:44;73.57;;;26.00;;
51578;SDS011;47998;53.242;6.386;2022-12-18T06:49:10;94.73;;;30.03;;
51578;SDS011;47998;53.242;6.386;2022-12-18T06:51:36;71.83;;;26.77;;
51578;SDS011;47998;53.242;6.386;2022-12-18T06:54:02;77.87;;;24.40;;
51578;SDS011;47998;53.242;6.386;2022-12-18T06:56:28;61.80;;;22.30;;
51578;SDS011;47998;53.242;6.386;2022-12-18T06:58:55;76.33;;;27.50;;
51578;SDS011;47998;53.242;6.386;2022-12-18T07:01:21;85.80;;;26.00;;
51578;SDS011;47998;53.242;6.386;2022-12-18T07:03:51;87.10;;;26.70;;
51578;SDS011;47998;53.242;6.386;2022-12-18T07:06:19;73.63;;;26.00;;
51578;SDS011;47998;53.242;6.386;2022-12-18T07:08:46;75.73;;;26.07;;
51578;SDS011;47998;53.242;6.386;2022-12-18T07:11:14;67.73;;;25.73;;
51578;SDS011;47998;53.242;6.386;2022-12-18T07:13:39;79.93;;;27.30;;
51578;SDS011;47998;53.242;6.386;2022-12-18T07:16:06;86.57;;;26.97;;
51578;SDS011;47998;53.242;6.386;2022-12-18T07:18:34;81.70;;;25.87;;
51578;SDS011;47998;53.242;6.386;2022-12-18T07:21:04;74.10;;;25.43;;
51578;SDS011;47998;53.242;6.386;2022-12-18T07:23:32;67.27;;;25.33;;
51578;SDS011;47998;53.242;6.386;2022-12-18T07:26:05;68.67;;;25.03;;
51578;SDS011;47998;53.242;6.386;2022-12-18T07:28:34;74.83;;;25.53;;
51578;SDS011;47998;53.242;6.386;2022-12-18T07:31:07;67.23;;;25.80;;
51578;SDS011;47998;53.242;6.386;2022-12-18T07:33:37;70.10;;;26.47;;
51578;SDS011;47998;53.242;6.386;2022-12-18T07:36:03;70.17;;;23.97;;
51578;SDS011;47998;53.242;6.386;2022-12-18T07:38:31;74.13;;;25.53;;
51578;SDS011;47998;53.242;6.386;2022-12-18T07:41:05;62.93;;;25.83;;
51578;SDS011;47998;53.242;6.386;2022-12-18T07:43:36;61.00;;;24.77;;
51578;SDS011;47998;53.242;6.386;2022-12-18T07:46:03;68.10;;;25.27;;
51578;SDS011;47998;53.242;6.386;2022-12-18T07:48:29;64.40;;;25.50;;
51578;SDS011;47998;53.242;6.386;2022-12-18T07:50:59;70.73;;;25.40;;
51578;SDS011;47998;53.242;6.386;2022-12-18T07:53:25;67.10;;;25.87;;
51578;SDS011;47998;53.242;6.386;2022-12-18T07:55:55;58.03;;;24.10;;
51578;SDS011;47998;53.242;6.386;2022-12-18T07:58:22;67.77;;;24.30;;
51578;SDS011;47998;53.242;6.386;2022-12-18T08:00:47;65.23;;;25.40;;
51578;SDS011;47998;53.242;6.386;2022-12-18T08:03:13;67.83;;;24.90;;
51578;SDS011;47998;53.242;6.386;2022-12-18T08:05:39;56.57;;;22.63;;
51578;SDS011;47998;53.242;6.386;2022-12-18T08:08:05;55.43;;;22.27;;
51578;SDS011;47998;53.242;6.386;2022-12-18T08:10:30;60.27;;;23.47;;
51578;SDS011;47998;53.242;6.386;2022-12-18T08:12:56;63.30;;;24.50;;
51578;SDS011;47998;53.242;6.386;2022-12-18T08:15:22;59.63;;;22.47;;
51578;SDS011;47998;53.242;6.386;2022-12-18T08:17:48;54.97;;;21.70;;
51578;SDS011;47998;53.242;6.386;2022-12-18T08:20:14;65.93;;;22.60;;
51578;SDS011;47998;53.242;6.386;2022-12-18T08:22:43;56.23;;;21.17;;
51578;SDS011;47998;53.242;6.386;2022-12-18T08:25:10;51.00;;;21.17;;
51578;SDS011;47998;53.242;6.386;2022-12-18T08:27:36;54.50;;;23.20;;
51578;SDS011;47998;53.242;6.386;2022-12-18T08:30:02;63.43;;;23.47;;
51578;SDS011;47998;53.242;6.386;2022-12-18T08:32:29;51.07;;;23.17;;
51578;SDS011;47998;53.242;6.386;2022-12-18T08:34:55;49.47;;;21.50;;
51578;SDS011;47998;53.242;6.386;2022-12-18T08:37:21;60.43;;;23.20;;
51578;SDS011;47998;53.242;6.386;2022-12-18T08:39:46;58.40;;;23.87;;
51578;SDS011;47998;53.242;6.386;2022-12-18T08:42:12;57.17;;;22.50;;
51578;SDS011;47998;53.242;6.386;2022-12-18T08:44:57;48.93;;;21.73;;
51578;SDS011;47998;53.242;6.386;2022-12-18T08:47:22;59.63;;;22.70;;
51578;SDS011;47998;53.242;6.386;2022-12-18T08:49:48;47.90;;;19.73;;
51578;SDS011;47998;53.242;6.386;2022-12-18T08:52:14;50.80;;;21.23;;
51578;SDS011;47998;53.242;6.386;2022-12-18T08:54:39;55.90;;;22.30;;
51578;SDS011;47998;53.242;6.386;2022-12-18T08:57:05;47.10;;;22.63;;
51578;SDS011;47998;53.242;6.386;2022-12-18T08:59:31;61.10;;;23.50;;
51578;SDS011;47998;53.242;6.386;2022-12-18T09:01:57;47.50;;;21.87;;
51578;SDS011;47998;53.242;6.386;2022-12-18T09:04:23;50.27;;;22.37;;
51578;SDS011;47998;53.242;6.386;2022-12-18T09:06:49;50.13;;;23.23;;
51578;SDS011;47998;53.242;6.386;2022-12-18T09:09:14;53.73;;;23.10;;
51578;SDS011;47998;53.242;6.386;2022-12-18T09:11:40;47.47;;;21.80;;
51578;SDS011;47998;53.242;6.386;2022-12-18T09:14:06;46.03;;;21.43;;
51578;SDS011;47998;53.242;6.386;2022-12-18T09:16:32;46.37;;;22.23;;
51578;SDS011;47998;53.242;6.386;2022-12-18T09:19:00;46.57;;;22.93;;
51578;SDS011;47998;53.242;6.386;2022-12-18T09:21:28;55.17;;;25.50;;
51578;SDS011;47998;53.242;6.386;2022-12-18T09:23:58;44.60;;;20.97;;
51578;SDS011;47998;53.242;6.386;2022-12-18T09:26:24;54.23;;;22.67;;
51578;SDS011;47998;53.242;6.386;2022-12-18T09:28:51;48.60;;;22.33;;
51578;SDS011;47998;53.242;6.386;2022-12-18T09:31:18;47.20;;;21.63;;
51578;SDS011;47998;53.242;6.386;2022-12-18T09:33:45;52.07;;;23.40;;
51578;SDS011;47998;53.242;6.386;2022-12-18T09:36:13;50.23;;;23.00;;
51578;SDS011;47998;53.242;6.386;2022-12-18T09:38:40;45.57;;;22.07;;
51578;SDS011;47998;53.242;6.386;2022-12-18T09:41:52;48.83;;;22.60;;
51578;SDS011;47998;53.242;6.386;2022-12-18T09:46:40;38.00;;;18.57;;
51578;SDS011;47998;53.242;6.386;2022-12-18T09:49:12;46.90;;;20.83;;
51578;SDS011;47998;53.242;6.386;2022-12-18T09:51:44;42.77;;;20.13;;
51578;SDS011;47998;53.242;6.386;2022-12-18T09:54:16;39.53;;;19.67;;
51578;SDS011;47998;53.242;6.386;2022-12-18T09:56:47;34.35;;;18.67;;
51578;SDS011;47998;53.242;6.386;2022-12-18T09:59:26;33.67;;;17.57;;
51578;SDS011;47998;53.242;6.386;2022-12-18T10:02:16;41.93;;;19.07;;
51578;SDS011;47998;53.242;6.386;2022-12-18T10:04:55;33.20;;;18.00;;
51578;SDS011;47998;53.242;6.386;2022-12-18T10:13:00;30.83;;;17.13;;
51578;SDS011;47998;53.242;6.386;2022-12-18T10:15:48;36.10;;;17.70;;
51578;SDS011;47998;53.242;6.386;2022-12-18T10:21:30;36.87;;;17.73;;
51578;SDS011;47998;53.242;6.386;2022-12-18T10:24:24;35.83;;;18.67;;
51578;SDS011;47998;53.242;6.386;2022-12-18T10:27:29;35.95;;;18.02;;
51578;SDS011;47998;53.242;6.386;2022-12-18T10:29:56;32.33;;;16.13;;
51578;SDS011;47998;53.242;6.386;2022-12-18T10:32:29;35.07;;;17.47;;
51578;SDS011;47998;53.242;6.386;2022-12-18T10:34:56;33.95;;;15.88;;
51578;SDS011;47998;53.242;6.386;2022-12-18T10:37:26;30.73;;;16.23;;
51578;SDS011;47998;53.242;6.386;2022-12-18T10:43:02;27.37;;;14.93;;
51578;SDS011;47998;53.242;6.386;2022-12-18T10:45:39;29.40;;;15.30;;
51578;SDS011;47998;53.242;6.386;2022-12-18T10:48:19;33.83;;;17.17;;
51578;SDS011;47998;53.242;6.386;2022-12-18T10:50:47;26.30;;;13.80;;
51578;SDS011;47998;53.242;6.386;2022-12-18T10:53:25;32.03;;;16.63;;
51578;SDS011;47998;53.242;6.386;2022-12-18T10:55:54;29.73;;;15.07;;
51578;SDS011;47998;53.242;6.386;2022-12-18T10:58:25;28.47;;;14.67;;
51578;SDS011;47998;53.242;6.386;2022-12-18T11:03:34;28.97;;;15.20;;
51578;SDS011;47998;53.242;6.386;2022-12-18T11:06:12;32.90;;;15.17;;
51578;SDS011;47998;53.242;6.386;2022-12-18T11:08:43;26.07;;;13.80;;
51578;SDS011;47998;53.242;6.386;2022-12-18T11:11:22;24.40;;;12.97;;
51578;SDS011;47998;53.242;6.386;2022-12-18T11:13:51;22.73;;;12.07;;
51578;SDS011;47998;53.242;6.386;2022-12-18T11:17:05;22.75;;;12.75;;
51578;SDS011;47998;53.242;6.386;2022-12-18T11:21:56;20.23;;;11.60;;
51578;SDS011;47998;53.242;6.386;2022-12-18T11:24:27;19.90;;;11.50;;
51578;SDS011;47998;53.242;6.386;2022-12-18T11:26:55;20.27;;;11.33;;
51578;SDS011;47998;53.242;6.386;2022-12-18T11:29:24;20.03;;;11.13;;
51578;SDS011;47998;53.242;6.386;2022-12-18T11:37:53;18.17;;;11.20;;
51578;SDS011;47998;53.242;6.386;2022-12-18T11:40:42;19.87;;;11.07;;
51578;SDS011;47998;53.242;6.386;2022-12-18T11:46:10;20.73;;;10.10;;
51578;SDS011;47998;53.242;6.386;2022-12-18T11:48:44;16.87;;;9.63;;
51578;SDS011;47998;53.242;6.386;2022-12-18T11:51:34;16.83;;;9.67;;
51578;SDS011;47998;53.242;6.386;2022-12-18T11:54:13;15.40;;;9.07;;
51578;SDS011;47998;53.242;6.386;2022-12-18T11:56:48;18.57;;;10.00;;
51578;SDS011;47998;53.242;6.386;2022-12-18T12:18:23;10.57;;;7.00;;
51578;SDS011;47998;53.242;6.386;2022-12-18T12:23:57;11.07;;;6.63;;
51578;SDS011;47998;53.242;6.386;2022-12-18T12:26:44;11.50;;;6.40;;
51578;SDS011;47998;53.242;6.386;2022-12-18T12:29:27;14.03;;;7.33;;
51578;SDS011;47998;53.242;6.386;2022-12-18T12:40:18;12.27;;;5.97;;
51578;SDS011;47998;53.242;6.386;2022-12-18T12:42:46;9.87;;;6.03;;
51578;SDS011;47998;53.242;6.386;2022-12-18T12:45:37;16.17;;;8.30;;
51578;SDS011;47998;53.242;6.386;2022-12-18T12:48:22;13.57;;;6.77;;
51578;SDS011;47998;53.242;6.386;2022-12-18T12:50:56;9.37;;;6.00;;
51578;SDS011;47998;53.242;6.386;2022-12-18T12:53:29;9.90;;;6.23;;
51578;SDS011;47998;53.242;6.386;2022-12-18T12:55:59;9.20;;;5.53;;
51578;SDS011;47998;53.242;6.386;2022-12-18T12:58:31;9.40;;;5.57;;
51578;SDS011;47998;53.242;6.386;2022-12-18T13:04:14;9.70;;;5.47;;
51578;SDS011;47998;53.242;6.386;2022-12-18T13:09:31;9.47;;;5.10;;
51578;SDS011;47998;53.242;6.386;2022-12-18T13:12:04;10.07;;;5.00;;
51578;SDS011;47998;53.242;6.386;2022-12-18T13:14:55;9.27;;;5.33;;
51578;SDS011;47998;53.242;6.386;2022-12-18T13:17:47;10.83;;;5.70;;
51578;SDS011;47998;53.242;6.386;2022-12-18T13:20:14;11.70;;;6.77;;
51578;SDS011;47998;53.242;6.386;2022-12-18T13:22:42;8.83;;;5.40;;
51578;SDS011;47998;53.242;6.386;2022-12-18T13:28:10;10.97;;;4.97;;
51578;SDS011;47998;53.242;6.386;2022-12-18T13:31:03;9.97;;;5.80;;
51578;SDS011;47998;53.242;6.386;2022-12-18T13:41:35;8.13;;;5.17;;
51578;SDS011;47998;53.242;6.386;2022-12-18T13:44:19;9.17;;;5.10;;
51578;SDS011;47998;53.242;6.386;2022-12-18T13:46:55;13.73;;;5.10;;
51578;SDS011;47998;53.242;6.386;2022-12-18T13:49:27;9.37;;;5.10;;
51578;SDS011;47998;53.242;6.386;2022-12-18T13:54:42;11.37;;;5.60;;
51578;SDS011;47998;53.242;6.386;2022-12-18T13:57:31;9.17;;;5.20;;
51578;SDS011;47998;53.242;6.386;2022-12-18T14:02:47;12.37;;;5.70;;
51578;SDS011;47998;53.242;6.386;2022-12-18T14:05:29;10.70;;;5.33;;
51578;SDS011;47998;53.242;6.386;2022-12-18T14:07:59;8.17;;;5.27;;
51578;SDS011;47998;53.242;6.386;2022-12-18T14:10:45;10.33;;;5.80;;
51578;SDS011;47998;53.242;6.386;2022-12-18T14:13:32;10.90;;;6.00;;
51578;SDS011;47998;53.242;6.386;2022-12-18T14:16:04;13.20;;;6.50;;
51578;SDS011;47998;53.242;6.386;2022-12-18T14:18:42;8.87;;;4.93;;
51578;SDS011;47998;53.242;6.386;2022-12-18T14:21:23;9.77;;;5.15;;
51578;SDS011;47998;53.242;6.386;2022-12-18T14:24:12;9.67;;;5.17;;
51578;SDS011;47998;53.242;6.386;2022-12-18T14:26:49;9.10;;;5.00;;
51578;SDS011;47998;53.242;6.386;2022-12-18T14:29:28;11.23;;;5.67;;
51578;SDS011;47998;53.242;6.386;2022-12-18T14:32:14;10.17;;;5.10;;
51578;SDS011;47998;53.242;6.386;2022-12-18T14:34:46;9.20;;;5.50;;
51578;SDS011;47998;53.242;6.386;2022-12-18T14:37:20;11.13;;;6.17;;
51578;SDS011;47998;53.242;6.386;2022-12-18T14:42:23;10.37;;;6.00;;
51578;SDS011;47998;53.242;6.386;2022-12-18T14:45:31;10.97;;;6.20;;
51578;SDS011;47998;53.242;6.386;2022-12-18T14:47:58;8.80;;;5.13;;
51578;SDS011;47998;53.242;6.386;2022-12-18T14:50:25;6.97;;;4.50;;
51578;SDS011;47998;53.242;6.386;2022-12-18T14:52:51;9.50;;;5.63;;
51578;SDS011;47998;53.242;6.386;2022-12-18T14:55:17;8.73;;;5.10;;
51578;SDS011;47998;53.242;6.386;2022-12-18T14:57:46;9.30;;;4.77;;
51578;SDS011;47998;53.242;6.386;2022-12-18T15:00:18;9.47;;;5.23;;
51578;SDS011;47998;53.242;6.386;2022-12-18T15:02:50;9.90;;;5.50;;
51578;SDS011;47998;53.242;6.386;2022-12-18T15:07:53;10.30;;;5.67;;
51578;SDS011;47998;53.242;6.386;2022-12-18T15:10:21;11.87;;;5.97;;
51578;SDS011;47998;53.242;6.386;2022-12-18T15:18:03;9.77;;;5.77;;
51578;SDS011;47998;53.242;6.386;2022-12-18T15:20:32;10.80;;;5.90;;
51578;SDS011;47998;53.242;6.386;2022-12-18T15:23:04;9.23;;;5.57;;
51578;SDS011;47998;53.242;6.386;2022-12-18T15:25:37;11.57;;;5.95;;
51578;SDS011;47998;53.242;6.386;2022-12-18T15:28:03;12.07;;;6.83;;
51578;SDS011;47998;53.242;6.386;2022-12-18T15:30:41;13.57;;;6.47;;
51578;SDS011;47998;53.242;6.386;2022-12-18T15:33:44;11.53;;;6.90;;
51578;SDS011;47998;53.242;6.386;2022-12-18T15:36:30;12.30;;;7.63;;
51578;SDS011;47998;53.242;6.386;2022-12-18T15:38:56;10.63;;;6.57;;
51578;SDS011;47998;53.242;6.386;2022-12-18T15:41:22;12.00;;;7.23;;
51578;SDS011;47998;53.242;6.386;2022-12-18T15:43:50;13.33;;;7.53;;
51578;SDS011;47998;53.242;6.386;2022-12-18T15:46:18;14.60;;;7.40;;
51578;SDS011;47998;53.242;6.386;2022-12-18T15:48:49;13.70;;;7.50;;
51578;SDS011;47998;53.242;6.386;2022-12-18T15:51:20;14.63;;;7.40;;
51578;SDS011;47998;53.242;6.386;2022-12-18T15:53:53;13.83;;;7.53;;
51578;SDS011;47998;53.242;6.386;2022-12-18T15:56:21;13.40;;;7.33;;
51578;SDS011;47998;53.242;6.386;2022-12-18T15:59:13;14.37;;;7.93;;
51578;SDS011;47998;53.242;6.386;2022-12-18T16:01:42;12.73;;;6.57;;
51578;SDS011;47998;53.242;6.386;2022-12-18T16:04:13;14.70;;;7.63;;
51578;SDS011;47998;53.242;6.386;2022-12-18T16:06:40;17.00;;;7.83;;
51578;SDS011;47998;53.242;6.386;2022-12-18T16:09:06;13.50;;;8.80;;
51578;SDS011;47998;53.242;6.386;2022-12-18T16:11:33;14.17;;;7.93;;
51578;SDS011;47998;53.242;6.386;2022-12-18T16:14:05;16.17;;;8.70;;
51578;SDS011;47998;53.242;6.386;2022-12-18T16:16:36;14.20;;;7.23;;
51578;SDS011;47998;53.242;6.386;2022-12-18T16:19:01;17.00;;;8.70;;
51578;SDS011;47998;53.242;6.386;2022-12-18T16:21:27;13.60;;;8.03;;
51578;SDS011;47998;53.242;6.386;2022-12-18T16:23:53;13.63;;;8.67;;
51578;SDS011;47998;53.242;6.386;2022-12-18T16:26:18;14.70;;;9.37;;
51578;SDS011;47998;53.242;6.386;2022-12-18T16:28:44;16.03;;;9.43;;
51578;SDS011;47998;53.242;6.386;2022-12-18T16:31:10;14.93;;;8.57;;
51578;SDS011;47998;53.242;6.386;2022-12-18T16:33:36;16.70;;;8.73;;
51578;SDS011;47998;53.242;6.386;2022-12-18T16:36:01;17.30;;;9.37;;